sensor_id;sensor_type;location;lat;lon;timestamp;P1;durP1;ratioP1;P2;durP2;ratioP2
5785;SDS011;2919;48.630;9.000;2022-09-03T00:05:07;2.87;;;1.67;;
5785;SDS011;2919;48.630;9.000;2022-09-03T00:13:22;4.67;;;1.50;;
5785;SDS011;2919;48.630;9.000;2022-09-03T00:15:52;2.00;;;1.30;;
5785;SDS011;2919;48.630;9.000;2022-09-03T00:18:22;3.97;;;1.80;;
5785;SDS011;2919;48.630;9.000;2022-09-03T00:20:56;20.83;;;1.90;;
5785;SDS011;2919;48.630;9.000;2022-09-03T00:23:32;2.97;;;1.60;;
5785;SDS011;2919;48.630;9.000;2022-09-03T00:28:44;3.10;;;1.73;;
5785;SDS011;2919;48.630;9.000;2022-09-03T00:33:55;5.47;;;1.60;;
5785;SDS011;2919;48.630;9.000;2022-09-03T00:36:27;2.43;;;1.40;;
5785;SDS011;2919;48.630;9.000;2022-09-03T00:38:59;21.20;;;2.23;;
5785;SDS011;2919;48.630;9.000;2022-09-03T00:46:48;3.73;;;1.83;;
5785;SDS011;2919;48.630;9.000;2022-09-03T01:00:13;3.60;;;1.90;;
5785;SDS011;2919;48.630;9.000;2022-09-03T01:08:35;5.30;;;2.00;;
5785;SDS011;2919;48.630;9.000;2022-09-03T01:29:43;2.77;;;1.47;;
5785;SDS011;2919;48.630;9.000;2022-09-03T01:51:05;2.43;;;1.60;;
5785;SDS011;2919;48.630;9.000;2022-09-03T02:02:26;2.63;;;1.30;;
5785;SDS011;2919;48.630;9.000;2022-09-03T02:07:55;2.97;;;1.23;;
5785;SDS011;2919;48.630;9.000;2022-09-03T02:10:26;2.53;;;1.50;;
5785;SDS011;2919;48.630;9.000;2022-09-03T02:15:45;3.73;;;1.20;;
5785;SDS011;2919;48.630;9.000;2022-09-03T02:18:19;2.87;;;1.57;;
5785;SDS011;2919;48.630;9.000;2022-09-03T02:20:49;3.83;;;1.93;;
5785;SDS011;2919;48.630;9.000;2022-09-03T02:23:18;2.30;;;1.20;;
5785;SDS011;2919;48.630;9.000;2022-09-03T02:25:47;4.37;;;1.77;;
5785;SDS011;2919;48.630;9.000;2022-09-03T02:28:16;2.03;;;1.20;;
5785;SDS011;2919;48.630;9.000;2022-09-03T02:30:42;3.87;;;1.73;;
5785;SDS011;2919;48.630;9.000;2022-09-03T02:33:08;5.90;;;1.53;;
5785;SDS011;2919;48.630;9.000;2022-09-03T02:35:35;2.90;;;1.43;;
5785;SDS011;2919;48.630;9.000;2022-09-03T02:38:11;2.53;;;1.33;;
5785;SDS011;2919;48.630;9.000;2022-09-03T02:40:42;8.63;;;2.30;;
5785;SDS011;2919;48.630;9.000;2022-09-03T02:43:10;1.90;;;1.27;;
5785;SDS011;2919;48.630;9.000;2022-09-03T02:45:42;2.90;;;0.90;;
5785;SDS011;2919;48.630;9.000;2022-09-03T02:48:11;1.97;;;1.10;;
5785;SDS011;2919;48.630;9.000;2022-09-03T02:50:41;4.37;;;1.27;;
5785;SDS011;2919;48.630;9.000;2022-09-03T02:53:07;4.50;;;1.53;;
5785;SDS011;2919;48.630;9.000;2022-09-03T02:55:33;2.27;;;1.53;;
5785;SDS011;2919;48.630;9.000;2022-09-03T02:57:59;2.33;;;1.40;;
5785;SDS011;2919;48.630;9.000;2022-09-03T03:00:25;2.10;;;1.43;;
5785;SDS011;2919;48.630;9.000;2022-09-03T03:02:53;2.37;;;1.47;;
5785;SDS011;2919;48.630;9.000;2022-09-03T03:05:20;3.80;;;1.43;;
5785;SDS011;2919;48.630;9.000;2022-09-03T03:07:51;2.57;;;1.63;;
5785;SDS011;2919;48.630;9.000;2022-09-03T03:10:17;5.80;;;2.20;;
5785;SDS011;2919;48.630;9.000;2022-09-03T03:12:42;2.03;;;1.30;;
5785;SDS011;2919;48.630;9.000;2022-09-03T03:15:08;4.43;;;1.83;;
5785;SDS011;2919;48.630;9.000;2022-09-03T03:17:34;2.37;;;1.23;;
5785;SDS011;2919;48.630;9.000;2022-09-03T03:19:59;2.80;;;1.40;;
5785;SDS011;2919;48.630;9.000;2022-09-03T03:22:25;3.47;;;1.83;;
5785;SDS011;2919;48.630;9.000;2022-09-03T03:24:51;2.60;;;1.30;;
5785;SDS011;2919;48.630;9.000;2022-09-03T03:27:16;2.90;;;1.53;;
5785;SDS011;2919;48.630;9.000;2022-09-03T03:29:42;3.47;;;2.10;;
5785;SDS011;2919;48.630;9.000;2022-09-03T03:32:08;1.80;;;1.37;;
5785;SDS011;2919;48.630;9.000;2022-09-03T03:34:34;3.57;;;2.00;;
5785;SDS011;2919;48.630;9.000;2022-09-03T03:36:59;4.27;;;1.60;;
5785;SDS011;2919;48.630;9.000;2022-09-03T03:39:25;5.03;;;1.57;;
5785;SDS011;2919;48.630;9.000;2022-09-03T03:41:50;3.90;;;1.87;;
5785;SDS011;2919;48.630;9.000;2022-09-03T03:44:16;3.63;;;1.90;;
5785;SDS011;2919;48.630;9.000;2022-09-03T03:46:44;2.90;;;2.00;;
5785;SDS011;2919;48.630;9.000;2022-09-03T03:49:10;6.50;;;1.63;;
5785;SDS011;2919;48.630;9.000;2022-09-03T03:51:36;2.63;;;1.63;;
5785;SDS011;2919;48.630;9.000;2022-09-03T03:54:02;4.60;;;1.93;;
5785;SDS011;2919;48.630;9.000;2022-09-03T03:56:29;5.27;;;2.30;;
5785;SDS011;2919;48.630;9.000;2022-09-03T03:58:54;11.13;;;1.90;;
5785;SDS011;2919;48.630;9.000;2022-09-03T04:01:22;3.13;;;1.17;;
5785;SDS011;2919;48.630;9.000;2022-09-03T04:03:49;4.10;;;1.80;;
5785;SDS011;2919;48.630;9.000;2022-09-03T04:06:16;4.60;;;2.10;;
5785;SDS011;2919;48.630;9.000;2022-09-03T04:08:44;2.70;;;1.67;;
5785;SDS011;2919;48.630;9.000;2022-09-03T04:11:12;3.50;;;1.93;;
5785;SDS011;2919;48.630;9.000;2022-09-03T04:13:45;7.40;;;2.27;;
5785;SDS011;2919;48.630;9.000;2022-09-03T04:18:42;3.70;;;2.40;;
5785;SDS011;2919;48.630;9.000;2022-09-03T04:21:18;3.23;;;1.60;;
5785;SDS011;2919;48.630;9.000;2022-09-03T04:23:46;3.10;;;2.00;;
5785;SDS011;2919;48.630;9.000;2022-09-03T04:26:14;5.60;;;2.20;;
5785;SDS011;2919;48.630;9.000;2022-09-03T04:28:41;2.57;;;1.50;;
5785;SDS011;2919;48.630;9.000;2022-09-03T04:31:08;4.97;;;2.20;;
5785;SDS011;2919;48.630;9.000;2022-09-03T04:33:36;5.27;;;2.33;;
5785;SDS011;2919;48.630;9.000;2022-09-03T04:36:09;4.60;;;2.10;;
5785;SDS011;2919;48.630;9.000;2022-09-03T04:38:37;12.43;;;2.40;;
5785;SDS011;2919;48.630;9.000;2022-09-03T04:41:04;5.40;;;2.67;;
5785;SDS011;2919;48.630;9.000;2022-09-03T04:43:31;5.20;;;2.80;;
5785;SDS011;2919;48.630;9.000;2022-09-03T04:45:57;2.60;;;1.90;;
5785;SDS011;2919;48.630;9.000;2022-09-03T04:48:24;6.13;;;2.47;;
5785;SDS011;2919;48.630;9.000;2022-09-03T04:50:51;3.20;;;2.20;;
5785;SDS011;2919;48.630;9.000;2022-09-03T04:53:18;5.33;;;2.40;;
5785;SDS011;2919;48.630;9.000;2022-09-03T04:55:43;4.53;;;2.20;;
5785;SDS011;2919;48.630;9.000;2022-09-03T04:58:09;3.77;;;2.10;;
5785;SDS011;2919;48.630;9.000;2022-09-03T05:00:35;5.90;;;2.50;;
5785;SDS011;2919;48.630;9.000;2022-09-03T05:03:01;2.83;;;1.70;;
5785;SDS011;2919;48.630;9.000;2022-09-03T05:05:29;5.30;;;2.40;;
5785;SDS011;2919;48.630;9.000;2022-09-03T05:08:01;24.27;;;2.30;;
5785;SDS011;2919;48.630;9.000;2022-09-03T05:10:28;3.60;;;2.10;;
5785;SDS011;2919;48.630;9.000;2022-09-03T05:12:58;4.67;;;3.37;;
5785;SDS011;2919;48.630;9.000;2022-09-03T05:15:25;5.60;;;2.60;;
5785;SDS011;2919;48.630;9.000;2022-09-03T05:17:56;3.97;;;2.37;;
5785;SDS011;2919;48.630;9.000;2022-09-03T05:20:22;4.13;;;1.97;;
5785;SDS011;2919;48.630;9.000;2022-09-03T05:22:49;9.20;;;2.30;;
5785;SDS011;2919;48.630;9.000;2022-09-03T05:25:14;7.27;;;2.87;;
5785;SDS011;2919;48.630;9.000;2022-09-03T05:27:40;6.23;;;3.13;;
5785;SDS011;2919;48.630;9.000;2022-09-03T05:30:06;5.80;;;2.80;;
5785;SDS011;2919;48.630;9.000;2022-09-03T05:32:32;4.47;;;2.40;;
5785;SDS011;2919;48.630;9.000;2022-09-03T05:34:58;3.13;;;2.03;;
5785;SDS011;2919;48.630;9.000;2022-09-03T05:37:23;4.20;;;2.73;;
5785;SDS011;2919;48.630;9.000;2022-09-03T05:39:49;6.87;;;3.20;;
5785;SDS011;2919;48.630;9.000;2022-09-03T05:42:15;4.50;;;2.50;;
5785;SDS011;2919;48.630;9.000;2022-09-03T05:44:40;4.63;;;2.50;;
5785;SDS011;2919;48.630;9.000;2022-09-03T05:47:07;4.77;;;2.40;;
5785;SDS011;2919;48.630;9.000;2022-09-03T05:49:33;5.13;;;2.43;;
5785;SDS011;2919;48.630;9.000;2022-09-03T05:51:59;3.37;;;2.10;;
5785;SDS011;2919;48.630;9.000;2022-09-03T05:54:24;3.43;;;2.23;;
5785;SDS011;2919;48.630;9.000;2022-09-03T05:56:50;4.37;;;2.70;;
5785;SDS011;2919;48.630;9.000;2022-09-03T05:59:16;8.23;;;3.37;;
5785;SDS011;2919;48.630;9.000;2022-09-03T06:01:42;4.13;;;2.17;;
5785;SDS011;2919;48.630;9.000;2022-09-03T06:04:12;5.67;;;2.30;;
5785;SDS011;2919;48.630;9.000;2022-09-03T06:06:39;3.47;;;2.00;;
5785;SDS011;2919;48.630;9.000;2022-09-03T06:09:07;6.70;;;3.00;;
5785;SDS011;2919;48.630;9.000;2022-09-03T06:11:38;3.53;;;1.90;;
5785;SDS011;2919;48.630;9.000;2022-09-03T06:14:06;5.70;;;2.40;;
5785;SDS011;2919;48.630;9.000;2022-09-03T06:16:35;3.87;;;2.17;;
5785;SDS011;2919;48.630;9.000;2022-09-03T06:19:02;3.97;;;2.40;;
5785;SDS011;2919;48.630;9.000;2022-09-03T06:21:33;7.60;;;2.90;;
5785;SDS011;2919;48.630;9.000;2022-09-03T06:24:00;5.20;;;2.90;;
5785;SDS011;2919;48.630;9.000;2022-09-03T06:26:27;7.73;;;3.17;;
5785;SDS011;2919;48.630;9.000;2022-09-03T06:28:53;5.23;;;2.37;;
5785;SDS011;2919;48.630;9.000;2022-09-03T06:31:20;8.43;;;2.20;;
5785;SDS011;2919;48.630;9.000;2022-09-03T06:33:47;5.87;;;2.30;;
5785;SDS011;2919;48.630;9.000;2022-09-03T06:36:14;3.23;;;2.33;;
5785;SDS011;2919;48.630;9.000;2022-09-03T06:38:41;3.90;;;1.80;;
5785;SDS011;2919;48.630;9.000;2022-09-03T06:41:11;21.53;;;2.37;;
5785;SDS011;2919;48.630;9.000;2022-09-03T06:43:45;2.20;;;1.37;;
5785;SDS011;2919;48.630;9.000;2022-09-03T06:46:13;6.73;;;2.13;;
5785;SDS011;2919;48.630;9.000;2022-09-03T06:48:40;2.97;;;1.83;;
5785;SDS011;2919;48.630;9.000;2022-09-03T06:51:07;3.03;;;2.07;;
5785;SDS011;2919;48.630;9.000;2022-09-03T06:53:44;3.67;;;2.37;;
5785;SDS011;2919;48.630;9.000;2022-09-03T06:56:13;4.10;;;2.30;;
5785;SDS011;2919;48.630;9.000;2022-09-03T06:58:44;4.87;;;2.13;;
5785;SDS011;2919;48.630;9.000;2022-09-03T07:03:38;3.17;;;1.90;;
5785;SDS011;2919;48.630;9.000;2022-09-03T07:06:09;4.60;;;2.57;;
5785;SDS011;2919;48.630;9.000;2022-09-03T07:08:41;5.10;;;2.07;;
5785;SDS011;2919;48.630;9.000;2022-09-03T07:11:10;4.97;;;2.37;;
5785;SDS011;2919;48.630;9.000;2022-09-03T07:13:46;7.00;;;3.10;;
5785;SDS011;2919;48.630;9.000;2022-09-03T07:16:14;16.50;;;2.23;;
5785;SDS011;2919;48.630;9.000;2022-09-03T07:19:07;3.20;;;1.93;;
5785;SDS011;2919;48.630;9.000;2022-09-03T07:21:34;4.27;;;2.20;;
5785;SDS011;2919;48.630;9.000;2022-09-03T07:24:03;2.63;;;1.60;;
5785;SDS011;2919;48.630;9.000;2022-09-03T07:26:30;2.43;;;1.33;;
5785;SDS011;2919;48.630;9.000;2022-09-03T07:28:58;5.80;;;2.13;;
5785;SDS011;2919;48.630;9.000;2022-09-03T07:31:28;3.40;;;2.20;;
5785;SDS011;2919;48.630;9.000;2022-09-03T07:33:56;5.67;;;1.97;;
5785;SDS011;2919;48.630;9.000;2022-09-03T07:36:24;4.07;;;1.80;;
5785;SDS011;2919;48.630;9.000;2022-09-03T07:38:53;3.43;;;1.47;;
5785;SDS011;2919;48.630;9.000;2022-09-03T07:41:20;3.10;;;2.00;;
5785;SDS011;2919;48.630;9.000;2022-09-03T07:43:47;2.87;;;1.80;;
5785;SDS011;2919;48.630;9.000;2022-09-03T07:46:14;4.27;;;1.80;;
5785;SDS011;2919;48.630;9.000;2022-09-03T07:48:56;2.63;;;1.50;;
5785;SDS011;2919;48.630;9.000;2022-09-03T07:51:27;5.90;;;1.73;;
5785;SDS011;2919;48.630;9.000;2022-09-03T07:53:58;3.33;;;1.40;;
5785;SDS011;2919;48.630;9.000;2022-09-03T07:56:26;2.90;;;1.70;;
5785;SDS011;2919;48.630;9.000;2022-09-03T07:58:52;4.20;;;1.80;;
5785;SDS011;2919;48.630;9.000;2022-09-03T08:01:21;3.47;;;1.50;;
5785;SDS011;2919;48.630;9.000;2022-09-03T08:03:50;3.23;;;1.20;;
5785;SDS011;2919;48.630;9.000;2022-09-03T08:06:18;6.07;;;2.20;;
5785;SDS011;2919;48.630;9.000;2022-09-03T08:08:46;2.63;;;1.47;;
5785;SDS011;2919;48.630;9.000;2022-09-03T08:11:18;3.47;;;1.60;;
5785;SDS011;2919;48.630;9.000;2022-09-03T08:13:46;1.83;;;1.03;;
5785;SDS011;2919;48.630;9.000;2022-09-03T08:16:17;3.53;;;2.17;;
5785;SDS011;2919;48.630;9.000;2022-09-03T08:18:43;2.67;;;1.30;;
5785;SDS011;2919;48.630;9.000;2022-09-03T08:21:11;7.97;;;1.90;;
5785;SDS011;2919;48.630;9.000;2022-09-03T08:23:39;3.87;;;1.63;;
5785;SDS011;2919;48.630;9.000;2022-09-03T08:26:07;2.57;;;1.30;;
5785;SDS011;2919;48.630;9.000;2022-09-03T08:28:34;2.63;;;1.43;;
5785;SDS011;2919;48.630;9.000;2022-09-03T08:31:07;2.43;;;1.20;;
5785;SDS011;2919;48.630;9.000;2022-09-03T08:33:36;2.67;;;1.50;;
5785;SDS011;2919;48.630;9.000;2022-09-03T08:36:05;4.20;;;1.73;;
5785;SDS011;2919;48.630;9.000;2022-09-03T08:38:33;3.00;;;1.37;;
5785;SDS011;2919;48.630;9.000;2022-09-03T08:41:19;3.20;;;1.43;;
5785;SDS011;2919;48.630;9.000;2022-09-03T08:49:11;5.00;;;1.80;;
5785;SDS011;2919;48.630;9.000;2022-09-03T08:51:39;3.07;;;1.50;;
5785;SDS011;2919;48.630;9.000;2022-09-03T08:54:07;3.00;;;1.63;;
5785;SDS011;2919;48.630;9.000;2022-09-03T08:56:36;2.07;;;1.17;;
5785;SDS011;2919;48.630;9.000;2022-09-03T08:59:04;2.47;;;1.37;;
5785;SDS011;2919;48.630;9.000;2022-09-03T09:01:42;3.63;;;1.90;;
5785;SDS011;2919;48.630;9.000;2022-09-03T09:04:34;2.80;;;1.47;;
5785;SDS011;2919;48.630;9.000;2022-09-03T09:07:23;4.23;;;2.50;;
5785;SDS011;2919;48.630;9.000;2022-09-03T09:10:02;6.83;;;1.90;;
5785;SDS011;2919;48.630;9.000;2022-09-03T09:12:34;6.17;;;1.40;;
5785;SDS011;2919;48.630;9.000;2022-09-03T09:20:37;3.20;;;1.47;;
5785;SDS011;2919;48.630;9.000;2022-09-03T09:23:27;3.57;;;1.87;;
5785;SDS011;2919;48.630;9.000;2022-09-03T09:25:55;4.60;;;2.23;;
5785;SDS011;2919;48.630;9.000;2022-09-03T09:28:30;3.03;;;1.80;;
5785;SDS011;2919;48.630;9.000;2022-09-03T09:31:00;5.63;;;2.70;;
5785;SDS011;2919;48.630;9.000;2022-09-03T09:33:28;3.73;;;1.70;;
5785;SDS011;2919;48.630;9.000;2022-09-03T09:35:57;3.10;;;1.43;;
5785;SDS011;2919;48.630;9.000;2022-09-03T09:38:29;3.13;;;1.60;;
5785;SDS011;2919;48.630;9.000;2022-09-03T09:41:06;2.80;;;1.70;;
5785;SDS011;2919;48.630;9.000;2022-09-03T09:43:33;2.43;;;1.20;;
5785;SDS011;2919;48.630;9.000;2022-09-03T09:46:04;3.20;;;1.63;;
5785;SDS011;2919;48.630;9.000;2022-09-03T09:48:50;3.50;;;1.70;;
5785;SDS011;2919;48.630;9.000;2022-09-03T09:51:20;3.10;;;1.40;;
5785;SDS011;2919;48.630;9.000;2022-09-03T09:53:47;4.03;;;1.50;;
5785;SDS011;2919;48.630;9.000;2022-09-03T09:56:25;3.37;;;1.07;;
5785;SDS011;2919;48.630;9.000;2022-09-03T10:01:30;2.80;;;1.37;;
5785;SDS011;2919;48.630;9.000;2022-09-03T10:03:59;3.03;;;1.27;;
5785;SDS011;2919;48.630;9.000;2022-09-03T10:09:56;4.83;;;1.60;;
5785;SDS011;2919;48.630;9.000;2022-09-03T10:23:32;2.67;;;1.00;;
5785;SDS011;2919;48.630;9.000;2022-09-03T10:26:05;3.40;;;1.63;;
5785;SDS011;2919;48.630;9.000;2022-09-03T10:28:34;4.10;;;1.63;;
5785;SDS011;2919;48.630;9.000;2022-09-03T10:33:43;3.17;;;1.70;;
5785;SDS011;2919;48.630;9.000;2022-09-03T10:36:16;3.50;;;1.67;;
5785;SDS011;2919;48.630;9.000;2022-09-03T10:38:48;2.57;;;1.27;;
5785;SDS011;2919;48.630;9.000;2022-09-03T10:41:32;2.30;;;1.10;;
5785;SDS011;2919;48.630;9.000;2022-09-03T10:49:41;4.10;;;2.03;;
5785;SDS011;2919;48.630;9.000;2022-09-03T11:00:08;4.50;;;1.63;;
5785;SDS011;2919;48.630;9.000;2022-09-03T11:03:02;3.00;;;1.63;;
5785;SDS011;2919;48.630;9.000;2022-09-03T11:06:03;4.70;;;1.73;;
5785;SDS011;2919;48.630;9.000;2022-09-03T11:08:36;3.17;;;1.93;;
5785;SDS011;2919;48.630;9.000;2022-09-03T11:11:15;4.53;;;2.17;;
5785;SDS011;2919;48.630;9.000;2022-09-03T11:19:07;2.47;;;1.30;;
5785;SDS011;2919;48.630;9.000;2022-09-03T11:21:36;4.27;;;1.87;;
5785;SDS011;2919;48.630;9.000;2022-09-03T11:26:38;3.63;;;1.83;;
5785;SDS011;2919;48.630;9.000;2022-09-03T11:29:13;2.67;;;1.50;;
5785;SDS011;2919;48.630;9.000;2022-09-03T11:36:52;4.93;;;2.27;;
5785;SDS011;2919;48.630;9.000;2022-09-03T11:39:41;4.40;;;2.17;;
5785;SDS011;2919;48.630;9.000;2022-09-03T11:42:11;3.60;;;2.13;;
5785;SDS011;2919;48.630;9.000;2022-09-03T11:44:49;2.80;;;1.80;;
5785;SDS011;2919;48.630;9.000;2022-09-03T11:49:47;4.73;;;2.40;;
5785;SDS011;2919;48.630;9.000;2022-09-03T11:52:24;4.90;;;2.40;;
5785;SDS011;2919;48.630;9.000;2022-09-03T11:54:54;5.30;;;1.70;;
5785;SDS011;2919;48.630;9.000;2022-09-03T11:57:29;5.53;;;1.10;;
5785;SDS011;2919;48.630;9.000;2022-09-03T12:00:09;2.60;;;1.00;;
5785;SDS011;2919;48.630;9.000;2022-09-03T12:03:03;13.73;;;1.80;;
5785;SDS011;2919;48.630;9.000;2022-09-03T12:19:15;2.07;;;1.00;;
5785;SDS011;2919;48.630;9.000;2022-09-03T12:21:48;2.43;;;1.20;;
5785;SDS011;2919;48.630;9.000;2022-09-03T12:24:14;1.40;;;0.70;;
5785;SDS011;2919;48.630;9.000;2022-09-03T12:26:43;2.30;;;1.10;;
5785;SDS011;2919;48.630;9.000;2022-09-03T12:29:24;2.30;;;1.00;;
5785;SDS011;2919;48.630;9.000;2022-09-03T12:31:51;1.70;;;0.83;;
5785;SDS011;2919;48.630;9.000;2022-09-03T12:34:18;1.83;;;0.70;;
5785;SDS011;2919;48.630;9.000;2022-09-03T12:36:46;1.90;;;1.10;;
5785;SDS011;2919;48.630;9.000;2022-09-03T12:39:17;1.97;;;0.80;;
5785;SDS011;2919;48.630;9.000;2022-09-03T12:49:52;1.67;;;0.70;;
5785;SDS011;2919;48.630;9.000;2022-09-03T12:52:29;1.60;;;0.90;;
5785;SDS011;2919;48.630;9.000;2022-09-03T12:55:48;1.80;;;0.70;;
5785;SDS011;2919;48.630;9.000;2022-09-03T13:00:49;2.20;;;0.80;;
5785;SDS011;2919;48.630;9.000;2022-09-03T13:06:20;2.00;;;0.80;;
5785;SDS011;2919;48.630;9.000;2022-09-03T13:08:54;3.47;;;1.30;;
5785;SDS011;2919;48.630;9.000;2022-09-03T13:11:22;1.93;;;0.80;;
5785;SDS011;2919;48.630;9.000;2022-09-03T13:14:24;1.70;;;0.80;;
5785;SDS011;2919;48.630;9.000;2022-09-03T13:31:56;1.97;;;0.87;;
5785;SDS011;2919;48.630;9.000;2022-09-03T13:34:33;3.43;;;1.00;;
5785;SDS011;2919;48.630;9.000;2022-09-03T13:39:52;2.83;;;0.90;;
5785;SDS011;2919;48.630;9.000;2022-09-03T13:44:58;1.83;;;1.00;;
5785;SDS011;2919;48.630;9.000;2022-09-03T13:47:35;2.27;;;0.73;;
5785;SDS011;2919;48.630;9.000;2022-09-03T13:50:06;1.90;;;0.80;;
5785;SDS011;2919;48.630;9.000;2022-09-03T14:06:01;1.87;;;0.70;;
5785;SDS011;2919;48.630;9.000;2022-09-03T14:20:07;2.47;;;1.33;;
5785;SDS011;2919;48.630;9.000;2022-09-03T14:25:50;2.10;;;1.00;;
5785;SDS011;2919;48.630;9.000;2022-09-03T14:28:30;2.57;;;0.90;;
5785;SDS011;2919;48.630;9.000;2022-09-03T14:33:36;2.33;;;1.10;;
5785;SDS011;2919;48.630;9.000;2022-09-03T14:38:54;1.50;;;0.80;;
5785;SDS011;2919;48.630;9.000;2022-09-03T15:08:43;4.37;;;1.73;;
5785;SDS011;2919;48.630;9.000;2022-09-03T15:13:53;1.50;;;0.70;;
5785;SDS011;2919;48.630;9.000;2022-09-03T15:25:14;2.50;;;1.13;;
5785;SDS011;2919;48.630;9.000;2022-09-03T15:30:44;3.87;;;1.23;;
5785;SDS011;2919;48.630;9.000;2022-09-03T15:36:39;2.63;;;0.87;;
5785;SDS011;2919;48.630;9.000;2022-09-03T15:39:01;1.77;;;0.97;;
5785;SDS011;2919;48.630;9.000;2022-09-03T15:44:15;2.17;;;1.00;;
5785;SDS011;2919;48.630;9.000;2022-09-03T15:46:58;2.33;;;1.20;;
5785;SDS011;2919;48.630;9.000;2022-09-03T15:49:51;2.50;;;1.00;;
5785;SDS011;2919;48.630;9.000;2022-09-03T15:55:24;1.83;;;0.93;;
5785;SDS011;2919;48.630;9.000;2022-09-03T15:58:02;3.70;;;1.27;;
5785;SDS011;2919;48.630;9.000;2022-09-03T16:18:27;1.90;;;0.87;;
5785;SDS011;2919;48.630;9.000;2022-09-03T16:23:59;2.27;;;0.97;;
5785;SDS011;2919;48.630;9.000;2022-09-03T16:26:41;9.13;;;1.07;;
5785;SDS011;2919;48.630;9.000;2022-09-03T16:29:23;3.60;;;1.63;;
5785;SDS011;2919;48.630;9.000;2022-09-03T16:34:48;2.03;;;0.87;;
5785;SDS011;2919;48.630;9.000;2022-09-03T16:37:38;6.00;;;1.33;;
5785;SDS011;2919;48.630;9.000;2022-09-03T16:40:43;1.63;;;0.80;;
5785;SDS011;2919;48.630;9.000;2022-09-03T17:14:31;1.60;;;0.67;;
5785;SDS011;2919;48.630;9.000;2022-09-03T17:20:04;2.40;;;1.27;;
5785;SDS011;2919;48.630;9.000;2022-09-03T17:26:05;2.97;;;1.27;;
5785;SDS011;2919;48.630;9.000;2022-09-03T17:28:43;3.37;;;1.10;;
5785;SDS011;2919;48.630;9.000;2022-09-03T17:36:28;2.13;;;0.70;;
5785;SDS011;2919;48.630;9.000;2022-09-03T17:47:10;2.50;;;1.37;;
5785;SDS011;2919;48.630;9.000;2022-09-03T17:52:48;1.60;;;0.90;;
5785;SDS011;2919;48.630;9.000;2022-09-03T17:55:31;3.33;;;1.40;;
5785;SDS011;2919;48.630;9.000;2022-09-03T18:00:41;1.63;;;0.83;;
5785;SDS011;2919;48.630;9.000;2022-09-03T18:03:18;11.13;;;1.77;;
5785;SDS011;2919;48.630;9.000;2022-09-03T18:06:00;2.40;;;1.00;;
5785;SDS011;2919;48.630;9.000;2022-09-03T18:08:48;3.20;;;1.00;;
5785;SDS011;2919;48.630;9.000;2022-09-03T18:22:35;1.63;;;0.83;;
5785;SDS011;2919;48.630;9.000;2022-09-03T18:25:26;1.97;;;1.13;;
5785;SDS011;2919;48.630;9.000;2022-09-03T18:28:13;2.60;;;1.50;;
5785;SDS011;2919;48.630;9.000;2022-09-03T18:31:00;11.40;;;1.90;;
5785;SDS011;2919;48.630;9.000;2022-09-03T18:33:44;3.27;;;1.27;;
5785;SDS011;2919;48.630;9.000;2022-09-03T18:36:29;2.37;;;1.30;;
5785;SDS011;2919;48.630;9.000;2022-09-03T18:39:15;2.37;;;1.60;;
5785;SDS011;2919;48.630;9.000;2022-09-03T18:56:56;9.40;;;2.40;;
5785;SDS011;2919;48.630;9.000;2022-09-03T18:59:54;3.97;;;1.80;;
5785;SDS011;2919;48.630;9.000;2022-09-03T19:11:48;7.87;;;2.50;;
5785;SDS011;2919;48.630;9.000;2022-09-03T19:14:56;26.83;;;2.07;;
5785;SDS011;2919;48.630;9.000;2022-09-03T19:21:32;6.17;;;1.40;;
5785;SDS011;2919;48.630;9.000;2022-09-03T19:24:18;2.93;;;1.83;;
5785;SDS011;2919;48.630;9.000;2022-09-03T19:30:19;2.73;;;1.47;;
5785;SDS011;2919;48.630;9.000;2022-09-03T19:36:29;2.40;;;1.30;;
5785;SDS011;2919;48.630;9.000;2022-09-03T19:49:08;9.97;;;3.60;;
5785;SDS011;2919;48.630;9.000;2022-09-03T19:52:01;3.00;;;1.67;;
5785;SDS011;2919;48.630;9.000;2022-09-03T19:54:52;5.43;;;2.90;;
5785;SDS011;2919;48.630;9.000;2022-09-03T19:57:39;4.37;;;2.47;;
5785;SDS011;2919;48.630;9.000;2022-09-03T20:00:24;9.23;;;4.57;;
5785;SDS011;2919;48.630;9.000;2022-09-03T20:03:11;14.33;;;6.67;;
5785;SDS011;2919;48.630;9.000;2022-09-03T20:05:56;13.17;;;4.40;;
5785;SDS011;2919;48.630;9.000;2022-09-03T20:08:41;21.37;;;3.30;;
5785;SDS011;2919;48.630;9.000;2022-09-03T20:11:27;4.43;;;2.40;;
5785;SDS011;2919;48.630;9.000;2022-09-03T20:13:54;3.43;;;1.30;;
5785;SDS011;2919;48.630;9.000;2022-09-03T20:16:40;2.70;;;1.23;;
5785;SDS011;2919;48.630;9.000;2022-09-03T20:19:28;2.73;;;1.53;;
5785;SDS011;2919;48.630;9.000;2022-09-03T20:24:55;1.87;;;0.90;;
5785;SDS011;2919;48.630;9.000;2022-09-03T20:30:18;1.90;;;0.97;;
5785;SDS011;2919;48.630;9.000;2022-09-03T20:38:41;2.83;;;1.40;;
5785;SDS011;2919;48.630;9.000;2022-09-03T20:44:20;3.40;;;1.47;;
5785;SDS011;2919;48.630;9.000;2022-09-03T20:55:10;2.20;;;1.40;;
5785;SDS011;2919;48.630;9.000;2022-09-03T21:00:25;2.87;;;1.60;;
5785;SDS011;2919;48.630;9.000;2022-09-03T21:03:08;3.50;;;1.50;;
5785;SDS011;2919;48.630;9.000;2022-09-03T21:08:25;2.83;;;1.77;;
5785;SDS011;2919;48.630;9.000;2022-09-03T21:11:17;2.23;;;1.27;;
5785;SDS011;2919;48.630;9.000;2022-09-03T21:25:35;4.37;;;2.03;;
5785;SDS011;2919;48.630;9.000;2022-09-03T21:31:03;4.53;;;1.90;;
5785;SDS011;2919;48.630;9.000;2022-09-03T21:33:37;8.17;;;1.93;;
5785;SDS011;2919;48.630;9.000;2022-09-03T21:39:18;2.50;;;1.00;;
5785;SDS011;2919;48.630;9.000;2022-09-03T21:41:55;2.40;;;1.30;;
5785;SDS011;2919;48.630;9.000;2022-09-03T21:47:13;3.43;;;1.33;;
5785;SDS011;2919;48.630;9.000;2022-09-03T21:52:20;2.70;;;1.60;;
5785;SDS011;2919;48.630;9.000;2022-09-03T21:54:52;2.50;;;1.20;;
5785;SDS011;2919;48.630;9.000;2022-09-03T21:57:18;2.50;;;1.23;;
5785;SDS011;2919;48.630;9.000;2022-09-03T22:02:43;2.60;;;1.30;;
5785;SDS011;2919;48.630;9.000;2022-09-03T22:05:13;4.10;;;1.90;;
5785;SDS011;2919;48.630;9.000;2022-09-03T22:13:17;3.30;;;1.40;;
5785;SDS011;2919;48.630;9.000;2022-09-03T22:16:02;4.90;;;1.07;;
5785;SDS011;2919;48.630;9.000;2022-09-03T22:18:31;5.57;;;1.50;;
5785;SDS011;2919;48.630;9.000;2022-09-03T22:21:04;3.70;;;1.57;;
5785;SDS011;2919;48.630;9.000;2022-09-03T22:23:43;3.77;;;1.90;;
5785;SDS011;2919;48.630;9.000;2022-09-03T22:29:02;3.70;;;1.83;;
5785;SDS011;2919;48.630;9.000;2022-09-03T22:37:05;4.70;;;1.63;;
5785;SDS011;2919;48.630;9.000;2022-09-03T22:39:45;2.73;;;1.30;;
5785;SDS011;2919;48.630;9.000;2022-09-03T22:42:23;2.33;;;1.47;;
5785;SDS011;2919;48.630;9.000;2022-09-03T22:55:44;2.37;;;1.47;;
5785;SDS011;2919;48.630;9.000;2022-09-03T22:58:19;2.90;;;1.53;;
5785;SDS011;2919;48.630;9.000;2022-09-03T23:00:51;2.20;;;1.20;;
5785;SDS011;2919;48.630;9.000;2022-09-03T23:03:26;2.13;;;1.27;;
5785;SDS011;2919;48.630;9.000;2022-09-03T23:06:05;3.90;;;1.77;;
5785;SDS011;2919;48.630;9.000;2022-09-03T23:08:38;3.63;;;1.87;;
5785;SDS011;2919;48.630;9.000;2022-09-03T23:11:17;3.50;;;1.67;;
5785;SDS011;2919;48.630;9.000;2022-09-03T23:14:02;3.10;;;1.43;;
5785;SDS011;2919;48.630;9.000;2022-09-03T23:16:44;2.47;;;1.30;;
5785;SDS011;2919;48.630;9.000;2022-09-03T23:19:25;2.33;;;1.50;;
5785;SDS011;2919;48.630;9.000;2022-09-03T23:22:26;3.90;;;1.90;;
5785;SDS011;2919;48.630;9.000;2022-09-03T23:25:19;2.50;;;1.30;;
5785;SDS011;2919;48.630;9.000;2022-09-03T23:27:50;3.30;;;1.40;;
5785;SDS011;2919;48.630;9.000;2022-09-03T23:30:22;2.30;;;1.57;;
5785;SDS011;2919;48.630;9.000;2022-09-03T23:32:48;3.70;;;1.93;;
5785;SDS011;2919;48.630;9.000;2022-09-03T23:35:19;2.00;;;1.40;;
5785;SDS011;2919;48.630;9.000;2022-09-03T23:41:00;2.93;;;1.73;;
5785;SDS011;2919;48.630;9.000;2022-09-03T23:59:32;2.87;;;1.73;;
